Time;durP1;ratioP1;P1;durP2;ratioP2;P2;SDS_P1;SDS_P2;PMS_P1;PMS_P2;Temp;Humidity;BMP_temperature;BMP_pressure;BME280_temperature;BME280_humidity;BME280_pressure;Samples;Min_cycle;Max_cycle;Signal;HPM_P1;HPM_P2
2023/08/30 00:00:01;;;;;;;3.00;2.80;;;18.60;90.40;17.80;95792.00;;;;5033523;28;20229;-87
2023/08/30 00:02:29;;;;;;;3.30;3.10;;;18.60;90.40;17.80;95787.00;;;;5016467;28;20284;-87
2023/08/30 00:05:00;;;;;;;2.60;2.50;;;18.60;90.40;17.80;95795.00;;;;5017484;28;20203;-87
2023/08/30 00:07:29;;;;;;;2.50;2.40;;;18.60;90.30;17.80;95798.00;;;;5017978;28;20229;-87
2023/08/30 00:09:57;;;;;;;3.10;2.90;;;18.60;90.30;17.80;95797.00;;;;5013255;28;20202;-87
2023/08/30 00:12:25;;;;;;;3.03;2.83;;;18.60;90.30;17.80;95794.00;;;;5019948;28;20450;-87
2023/08/30 00:14:53;;;;;;;3.20;2.90;;;18.60;90.30;17.90;95796.00;;;;5031566;28;20204;-87
2023/08/30 00:17:20;;;;;;;3.27;3.07;;;18.60;90.20;17.90;95792.00;;;;5027014;28;20292;-87
2023/08/30 00:19:48;;;;;;;3.23;3.03;;;18.60;90.30;17.80;95789.00;;;;5035671;28;20202;-87
2023/08/30 00:22:15;;;;;;;2.90;2.80;;;18.60;90.30;17.80;95795.00;;;;5030394;28;20202;-87
2023/08/30 00:24:45;;;;;;;3.20;2.90;;;18.60;90.30;17.90;95794.00;;;;5030390;28;20634;-87
2023/08/30 00:27:12;;;;;;;3.30;3.03;;;18.60;90.30;17.90;95796.00;;;;5027304;28;20193;-87
2023/08/30 00:29:40;;;;;;;3.00;2.90;;;18.60;90.40;17.90;95791.00;;;;5025403;28;20204;-87
2023/08/30 00:32:07;;;;;;;3.23;3.10;;;18.60;90.40;17.90;95793.00;;;;5020859;28;20597;-87
2023/08/30 00:34:35;;;;;;;3.30;3.10;;;18.60;90.40;17.90;95796.00;;;;5031849;28;20368;-88
2023/08/30 00:37:02;;;;;;;3.10;2.90;;;18.60;90.40;17.90;95795.00;;;;5029893;28;20248;-87
2023/08/30 00:39:29;;;;;;;3.13;2.93;;;18.60;90.30;17.90;95790.00;;;;5032188;28;20582;-87
2023/08/30 00:41:58;;;;;;;3.23;3.03;;;18.60;90.30;17.80;95791.00;;;;5022065;28;20214;-87
2023/08/30 00:44:25;;;;;;;3.60;3.40;;;18.60;90.30;17.80;95791.00;;;;5004290;28;20277;-87
2023/08/30 00:46:53;;;;;;;3.17;2.97;;;18.60;90.30;17.90;95803.00;;;;5012532;28;20214;-87
2023/08/30 00:49:21;;;;;;;4.20;3.77;;;18.60;90.30;17.80;95802.00;;;;5029346;28;20229;-87
2023/08/30 00:51:48;;;;;;;3.57;3.37;;;18.60;90.40;17.80;95794.00;;;;5015626;28;20197;-87
2023/08/30 00:54:16;;;;;;;3.73;3.53;;;18.60;90.30;17.80;95791.00;;;;5017931;28;20194;-87
2023/08/30 00:56:44;;;;;;;3.60;3.40;;;18.60;90.30;17.80;95801.00;;;;5020375;28;20308;-87
2023/08/30 00:59:14;;;;;;;3.77;3.50;;;18.60;90.30;17.80;95796.00;;;;5018295;28;20193;-87
2023/08/30 01:01:42;;;;;;;4.33;4.13;;;18.60;90.30;17.80;95795.00;;;;5031947;28;20607;-87
2023/08/30 01:04:09;;;;;;;3.77;3.57;;;18.60;90.30;17.80;95800.00;;;;5024910;28;20197;-87
2023/08/30 01:06:37;;;;;;;3.77;3.57;;;18.60;90.30;17.80;95798.00;;;;5021267;28;20218;-87
2023/08/30 01:09:05;;;;;;;4.73;3.90;;;18.60;90.40;17.80;95803.00;;;;5023328;28;20200;-87
2023/08/30 01:11:42;;;;;;;4.63;4.33;;;18.60;90.40;17.80;95812.00;;;;5023523;28;20668;-87
2023/08/30 01:14:17;;;;;;;4.10;3.80;;;18.60;90.30;17.80;95806.00;;;;5012940;28;20207;-87
2023/08/30 01:16:46;;;;;;;4.20;4.00;;;18.60;90.30;17.80;95801.00;;;;5024974;28;20219;-87
2023/08/30 01:19:38;;;;;;;4.73;4.33;;;18.60;90.30;17.80;95806.00;;;;5026213;28;20193;-87
2023/08/30 01:22:18;;;;;;;4.03;3.83;;;18.60;90.20;17.80;95801.00;;;;5019144;28;20252;-87
2023/08/30 01:24:59;;;;;;;4.20;4.00;;;18.60;90.30;17.80;95794.00;;;;5021181;28;20581;-87
2023/08/30 01:27:34;;;;;;;4.60;4.30;;;18.60;90.30;17.80;95795.00;;;;5021096;28;20205;-88
2023/08/30 01:30:04;;;;;;;4.90;4.60;;;18.60;90.30;17.80;95798.00;;;;5015311;28;20683;-87
2023/08/30 01:32:35;;;;;;;4.93;4.63;;;18.60;90.30;17.80;95803.00;;;;5028855;28;20210;-87
2023/08/30 01:35:04;;;;;;;4.97;4.67;;;18.60;90.20;17.80;95801.00;;;;5026208;28;20601;-87
2023/08/30 01:37:33;;;;;;;5.10;4.70;;;18.60;90.20;17.80;95802.00;;;;5018980;28;20590;-87
2023/08/30 01:40:04;;;;;;;5.30;5.00;;;18.60;90.30;17.80;95801.00;;;;5022549;28;20193;-87
2023/08/30 01:42:34;;;;;;;5.30;4.90;;;18.60;90.30;17.80;95805.00;;;;5022017;28;20618;-86
2023/08/30 01:45:04;;;;;;;5.27;4.90;;;18.60;90.30;17.80;95802.00;;;;5012784;28;20214;-87
2023/08/30 01:47:33;;;;;;;5.27;4.90;;;18.60;90.30;17.80;95804.00;;;;5020493;28;20198;-87
2023/08/30 01:50:03;;;;;;;5.60;5.30;;;18.60;90.30;17.80;95806.00;;;;5024227;28;20209;-87
2023/08/30 01:52:33;;;;;;;5.37;4.97;;;18.50;90.30;17.80;95809.00;;;;5023558;28;20210;-87
2023/08/30 01:55:03;;;;;;;5.97;5.47;;;18.50;90.30;17.80;95805.00;;;;5017599;28;20218;-87
2023/08/30 01:57:34;;;;;;;5.00;4.63;;;18.50;90.30;17.80;95814.00;;;;5019022;28;20205;-87
2023/08/30 02:00:01;;;;;;;4.90;4.60;;;18.60;90.40;17.80;95814.00;;;;5024648;28;20293;-87
2023/08/30 02:02:31;;;;;;;4.60;4.30;;;18.60;90.40;17.80;95809.00;;;;5018887;28;20218;-88
2023/08/30 02:04:58;;;;;;;5.37;4.97;;;18.60;90.30;17.80;95809.00;;;;5022462;28;20193;-87
2023/08/30 02:07:45;;;;;;;5.00;4.63;;;18.60;90.40;17.80;95807.00;;;;5030139;28;20566;-87
2023/08/30 02:10:18;;;;;;;4.97;4.57;;;18.60;90.70;17.80;95806.00;;;;5018854;28;20197;-87
2023/08/30 02:12:50;;;;;;;5.50;5.00;;;18.60;90.30;17.80;95803.00;;;;5029350;28;20277;-87
2023/08/30 02:15:19;;;;;;;4.90;4.60;;;18.60;90.30;17.80;95805.00;;;;5020234;28;20592;-87
2023/08/30 02:17:47;;;;;;;4.80;4.50;;;18.60;90.30;17.80;95804.00;;;;5023948;28;20200;-87
2023/08/30 02:20:15;;;;;;;5.00;4.70;;;18.60;90.30;17.80;95802.00;;;;5023919;28;20200;-87
2023/08/30 02:22:42;;;;;;;5.00;4.60;;;18.60;90.40;17.80;95798.00;;;;5030883;28;20225;-87
2023/08/30 02:25:10;;;;;;;5.57;5.17;;;18.60;90.40;17.80;95799.00;;;;5025869;28;20217;-87
2023/08/30 02:27:37;;;;;;;5.53;5.13;;;18.60;90.40;17.80;95804.00;;;;5022582;28;20596;-87
2023/08/30 02:30:09;;;;;;;4.97;4.57;;;18.60;90.40;17.80;95813.00;;;;5022731;28;20200;-87
2023/08/30 02:32:37;;;;;;;4.73;4.43;;;18.60;90.30;17.80;95808.00;;;;5032270;28;20201;-87
2023/08/30 02:35:06;;;;;;;5.00;4.70;;;18.60;90.40;17.80;95807.00;;;;5027020;28;20218;-87
2023/08/30 02:37:33;;;;;;;4.70;4.40;;;18.60;90.40;17.80;95805.00;;;;5029565;28;20217;-88
2023/08/30 02:40:01;;;;;;;5.00;4.70;;;18.60;90.40;17.80;95805.00;;;;5021851;28;20284;-87
2023/08/30 02:42:28;;;;;;;6.13;5.63;;;18.70;90.40;17.80;95808.00;;;;5027813;28;20728;-88
2023/08/30 02:44:55;;;;;;;6.13;5.63;;;18.60;90.40;17.80;95810.00;;;;5024825;28;20687;-87
2023/08/30 02:47:24;;;;;;;5.97;5.57;;;18.60;90.40;17.80;95808.00;;;;5035092;28;20235;-87
2023/08/30 02:49:52;;;;;;;6.07;5.67;;;18.60;90.40;17.80;95801.00;;;;5038076;28;20309;-87
2023/08/30 02:52:19;;;;;;;5.73;5.33;;;18.60;90.40;17.80;95810.00;;;;5044873;28;20278;-87
2023/08/30 02:54:47;;;;;;;6.07;5.57;;;18.60;90.40;17.80;95809.00;;;;5024787;28;20190;-87
2023/08/30 02:57:14;;;;;;;6.37;5.77;;;18.60;90.40;17.80;95813.00;;;;5013626;28;20193;-88
2023/08/30 02:59:41;;;;;;;6.27;5.87;;;18.60;90.40;17.80;95811.00;;;;5034378;28;20265;-87
2023/08/30 03:02:09;;;;;;;7.07;6.37;;;18.60;90.40;17.80;95798.00;;;;5019781;28;20224;-87
2023/08/30 03:04:38;;;;;;;6.90;6.40;;;18.60;90.30;17.80;95804.00;;;;5020798;28;20198;-88
2023/08/30 03:07:05;;;;;;;6.57;6.07;;;18.60;90.30;17.80;95806.00;;;;5006315;28;20242;-87
2023/08/30 03:09:33;;;;;;;6.47;6.03;;;18.60;90.40;17.80;95808.00;;;;5023382;28;20281;-86
2023/08/30 03:12:00;;;;;;;7.13;6.63;;;18.60;90.40;17.80;95795.00;;;;5019328;28;20213;-86
2023/08/30 03:14:27;;;;;;;7.30;6.60;;;18.60;90.40;17.80;95803.00;;;;5024941;28;20197;-87
2023/08/30 03:16:55;;;;;;;6.90;6.40;;;18.60;90.40;17.80;95807.00;;;;5018415;28;20591;-86
2023/08/30 03:19:23;;;;;;;6.47;6.03;;;18.60;90.40;17.90;95800.00;;;;5025294;28;20189;-87
2023/08/30 03:21:51;;;;;;;5.90;5.40;;;18.60;90.40;17.90;95802.00;;;;5023081;28;20714;-87
2023/08/30 03:24:20;;;;;;;6.57;6.07;;;18.60;90.30;17.90;95790.00;;;;5022593;28;20197;-86
2023/08/30 03:26:47;;;;;;;7.33;6.57;;;18.60;90.30;17.90;95781.00;;;;5023254;28;20222;-87
2023/08/30 03:29:14;;;;;;;6.50;6.00;;;18.60;90.30;17.90;95787.00;;;;5029897;28;20201;-87
2023/08/30 03:31:43;;;;;;;6.80;6.20;;;18.60;90.30;17.90;95791.00;;;;5026478;28;20205;-87
2023/08/30 03:34:10;;;;;;;6.83;6.33;;;18.60;90.30;17.90;95792.00;;;;5025084;28;20630;-87
2023/08/30 03:36:39;;;;;;;6.90;6.30;;;18.60;90.30;17.90;95793.00;;;;5022586;28;20225;-87
2023/08/30 03:39:07;;;;;;;6.77;6.17;;;18.70;90.30;17.90;95790.00;;;;5025814;28;20205;-87
2023/08/30 03:41:35;;;;;;;6.93;6.43;;;18.60;90.20;17.80;95786.00;;;;5026332;28;20226;-87
2023/08/30 03:44:02;;;;;;;7.23;6.70;;;18.60;90.20;17.80;95791.00;;;;5019739;28;20230;-87
2023/08/30 03:46:30;;;;;;;6.83;6.33;;;18.60;90.20;17.80;95797.00;;;;5010228;28;20765;-87
2023/08/30 03:48:57;;;;;;;7.67;7.00;;;18.60;90.20;17.80;95795.00;;;;5027635;28;20202;-86
2023/08/30 03:51:24;;;;;;;7.30;6.70;;;18.60;90.20;17.80;95798.00;;;;5020782;28;20209;-87
2023/08/30 03:53:51;;;;;;;7.07;6.57;;;18.60;90.20;17.80;95801.00;;;;5024219;28;20231;-87
2023/08/30 03:56:21;;;;;;;8.00;7.40;;;18.60;90.10;17.80;95799.00;;;;5023842;28;20213;-87
2023/08/30 03:58:48;;;;;;;7.80;7.20;;;18.60;90.10;17.80;95793.00;;;;5023332;28;20207;-87
2023/08/30 04:01:15;;;;;;;7.43;6.77;;;18.60;90.10;17.80;95800.00;;;;5023216;28;20232;-87
2023/08/30 04:03:43;;;;;;;6.80;6.10;;;18.60;90.10;17.80;95800.00;;;;5025604;28;20201;-87
2023/08/30 04:06:10;;;;;;;6.57;6.07;;;18.60;90.20;17.80;95793.00;;;;5024111;28;20221;-87
2023/08/30 04:08:38;;;;;;;7.30;6.73;;;18.60;90.20;17.80;95786.00;;;;5032556;28;20205;-87
2023/08/30 04:11:05;;;;;;;7.07;6.47;;;18.60;90.20;17.80;95787.00;;;;5032821;28;20204;-87
2023/08/30 04:13:35;;;;;;;8.03;7.33;;;18.60;90.20;17.80;95785.00;;;;5025743;28;20193;-87
2023/08/30 04:16:03;;;;;;;7.77;7.17;;;18.60;90.10;17.80;95796.00;;;;5020217;28;20229;-87
2023/08/30 04:18:31;;;;;;;7.37;6.77;;;18.60;90.20;17.80;95792.00;;;;5020212;28;20209;-87
2023/08/30 04:21:02;;;;;;;7.93;7.30;;;18.60;90.20;17.80;95797.00;;;;5025383;28;20197;-87
2023/08/30 04:23:30;;;;;;;7.00;6.50;;;18.60;90.10;17.80;95798.00;;;;5023459;28;20288;-87
2023/08/30 04:25:57;;;;;;;7.40;6.77;;;18.60;90.10;17.70;95799.00;;;;5025106;28;20702;-88
2023/08/30 04:28:27;;;;;;;6.67;6.17;;;18.60;90.10;17.70;95791.00;;;;5025115;28;20208;-86
2023/08/30 04:30:57;;;;;;;7.00;6.50;;;18.60;90.10;17.70;95797.00;;;;5016842;28;20212;-87
2023/08/30 04:33:25;;;;;;;7.10;6.50;;;18.60;90.10;17.70;95799.00;;;;5026672;28;20259;-87
2023/08/30 04:35:52;;;;;;;7.23;6.70;;;18.50;90.10;17.70;95803.00;;;;5025110;28;20785;-87
2023/08/30 04:38:20;;;;;;;6.40;5.90;;;18.50;90.10;17.70;95801.00;;;;5022003;28;20206;-88
2023/08/30 04:40:49;;;;;;;7.30;6.80;;;18.50;90.10;17.70;95798.00;;;;5014961;28;20672;-87
2023/08/30 04:43:16;;;;;;;7.10;6.53;;;18.50;90.10;17.70;95799.00;;;;5016373;28;20232;-87
2023/08/30 04:45:43;;;;;;;7.40;6.80;;;18.50;90.20;17.70;95803.00;;;;5027741;28;20218;-87
2023/08/30 04:48:12;;;;;;;7.20;6.60;;;18.50;90.10;17.70;95798.00;;;;5020231;28;20200;-87
2023/08/30 04:50:41;;;;;;;7.83;7.27;;;18.50;90.10;17.70;95800.00;;;;5013652;28;20595;-87
2023/08/30 04:53:08;;;;;;;7.43;6.83;;;18.50;90.10;17.70;95809.00;;;;5030030;28;20822;-87
2023/08/30 04:55:36;;;;;;;6.57;6.07;;;18.50;90.10;17.70;95810.00;;;;5015296;28;20214;-87
2023/08/30 04:58:04;;;;;;;6.77;6.27;;;18.50;90.10;17.70;95814.00;;;;5031742;28;20193;-87
2023/08/30 05:00:31;;;;;;;7.87;7.17;;;18.50;90.20;17.70;95813.00;;;;5023795;28;20822;-87
2023/08/30 05:02:58;;;;;;;7.67;7.07;;;18.50;90.20;17.70;95818.00;;;;5021174;28;20658;-88
2023/08/30 05:05:27;;;;;;;7.10;6.57;;;18.50;90.20;17.70;95812.00;;;;5029546;28;20596;-87
2023/08/30 05:07:55;;;;;;;7.33;6.73;;;18.50;90.20;17.70;95812.00;;;;5029462;28;20288;-87
2023/08/30 05:10:22;;;;;;;7.47;6.93;;;18.50;90.30;17.80;95809.00;;;;5016717;28;20202;-87
2023/08/30 05:12:51;;;;;;;7.67;7.07;;;18.50;90.30;17.80;95808.00;;;;5025464;28;20656;-88
2023/08/30 05:15:19;;;;;;;7.43;6.83;;;18.60;90.30;17.80;95807.00;;;;5024693;28;20221;-87
2023/08/30 05:17:46;;;;;;;7.43;6.93;;;18.60;90.30;17.80;95808.00;;;;5024917;28;20190;-87
2023/08/30 05:20:14;;;;;;;8.30;7.60;;;18.60;90.40;17.80;95812.00;;;;5036763;28;20201;-87
2023/08/30 05:22:43;;;;;;;7.93;7.33;;;18.60;90.30;17.80;95809.00;;;;5031814;28;20706;-88
2023/08/30 05:25:10;;;;;;;8.70;8.00;;;18.60;90.20;17.80;95811.00;;;;5031429;28;20289;-87
2023/08/30 05:27:37;;;;;;;8.17;7.53;;;18.60;90.20;17.80;95809.00;;;;5015455;28;20664;-87
2023/08/30 05:30:06;;;;;;;7.63;6.93;;;18.60;90.20;17.80;95810.00;;;;5039480;28;20261;-87
2023/08/30 05:32:34;;;;;;;9.00;8.20;;;18.60;90.20;17.80;95810.00;;;;5020320;28;20277;-87
2023/08/30 05:35:01;;;;;;;9.23;8.47;;;18.60;90.30;17.90;95807.00;;;;5019758;28;20228;-86
2023/08/30 05:37:28;;;;;;;9.30;8.50;;;18.60;90.30;17.90;95812.00;;;;5025279;28;20205;-86
2023/08/30 05:39:58;;;;;;;9.00;8.10;;;18.70;90.40;17.90;95810.00;;;;5018595;28;20194;-87
2023/08/30 05:42:25;;;;;;;8.60;7.90;;;18.70;90.40;18.00;95816.00;;;;5017649;28;20283;-87
2023/08/30 05:44:54;;;;;;;8.83;8.03;;;18.70;90.40;18.00;95808.00;;;;5014374;28;20225;-86
2023/08/30 05:47:22;;;;;;;9.30;8.50;;;18.80;90.50;18.00;95802.00;;;;5020832;28;20200;-86
2023/08/30 05:49:49;;;;;;;9.13;8.33;;;18.80;90.50;18.10;95804.00;;;;5020920;28;20202;-88
2023/08/30 05:52:18;;;;;;;8.90;8.20;;;18.80;90.50;18.10;95807.00;;;;5020965;28;20202;-86
2023/08/30 05:54:45;;;;;;;8.80;7.97;;;18.80;90.40;18.10;95802.00;;;;5020657;28;20240;-88
2023/08/30 05:57:14;;;;;;;8.77;8.07;;;18.90;90.40;18.10;95808.00;;;;5020489;28;20198;-87
2023/08/30 05:59:41;;;;;;;8.13;7.53;;;18.90;90.40;18.20;95811.00;;;;5028372;28;20197;-87
2023/08/30 06:02:08;;;;;;;8.93;8.23;;;19.00;90.40;18.20;95803.00;;;;5001124;28;20221;-87
2023/08/30 06:04:36;;;;;;;9.50;8.63;;;19.00;90.40;18.20;95805.00;;;;5023784;28;20285;-86
2023/08/30 06:07:03;;;;;;;10.17;9.17;;;19.00;90.40;18.20;95804.00;;;;5029002;28;20228;-87
2023/08/30 06:09:31;;;;;;;10.23;9.20;;;19.00;90.30;18.20;95809.00;;;;5024290;28;20732;-87
2023/08/30 06:11:58;;;;;;;9.73;8.87;;;19.10;90.30;18.30;95815.00;;;;5021092;28;20592;-87
2023/08/30 06:14:27;;;;;;;9.03;8.33;;;19.10;90.30;18.30;95819.00;;;;5027432;28;20197;-85
2023/08/30 06:16:55;;;;;;;9.00;8.20;;;19.10;90.20;18.30;95812.00;;;;5034969;28;20213;-88
2023/08/30 06:19:22;;;;;;;8.87;8.17;;;19.10;90.50;18.30;95822.00;;;;5019810;28;20204;-87
2023/08/30 06:21:51;;;;;;;9.13;8.27;;;19.10;90.20;18.30;95819.00;;;;5019495;28;20206;-89
2023/08/30 06:24:18;;;;;;;8.97;8.17;;;19.10;90.20;18.40;95820.00;;;;5020420;28;20691;-87
2023/08/30 06:26:46;;;;;;;9.17;8.43;;;19.10;90.50;18.40;95824.00;;;;5035333;28;20305;-87
2023/08/30 06:29:13;;;;;;;9.17;8.37;;;19.20;90.20;18.40;95825.00;;;;5019652;28;20204;-86
2023/08/30 06:31:42;;;;;;;9.10;8.37;;;19.20;90.10;18.40;95820.00;;;;5030331;28;20209;-87
2023/08/30 06:34:10;;;;;;;9.70;8.87;;;19.20;90.00;18.40;95824.00;;;;5023215;28;20693;-88
2023/08/30 06:36:37;;;;;;;9.27;8.43;;;19.20;90.10;18.40;95823.00;;;;5025179;28;20226;-86
2023/08/30 06:39:05;;;;;;;9.53;8.67;;;19.20;90.00;18.40;95823.00;;;;5021979;28;20210;-86
2023/08/30 06:41:32;;;;;;;8.90;8.20;;;19.20;90.00;18.40;95822.00;;;;5029890;28;20201;-86
2023/08/30 06:43:59;;;;;;;8.83;8.03;;;19.20;89.90;18.40;95819.00;;;;5025411;28;20221;-86
2023/08/30 06:46:27;;;;;;;8.93;8.23;;;19.20;90.00;18.40;95820.00;;;;5023658;28;20596;-85
2023/08/30 06:48:56;;;;;;;9.33;8.57;;;19.20;90.00;18.40;95827.00;;;;5021526;28;20215;-86
2023/08/30 06:51:23;;;;;;;9.47;8.67;;;19.20;90.00;18.40;95827.00;;;;5031553;28;20210;-87
2023/08/30 06:53:51;;;;;;;8.90;8.20;;;19.30;90.10;18.50;95829.00;;;;5035508;28;20225;-86
2023/08/30 06:56:18;;;;;;;9.27;8.50;;;19.20;90.00;18.50;95825.00;;;;5025936;28;20305;-87
2023/08/30 06:58:46;;;;;;;9.10;8.30;;;19.30;90.00;18.50;95828.00;;;;5031781;28;20201;-86
2023/08/30 07:01:14;;;;;;;9.73;8.83;;;19.30;90.00;18.50;95843.00;;;;5031858;28;20229;-87
2023/08/30 07:03:42;;;;;;;9.80;9.00;;;19.30;89.80;18.50;95827.00;;;;5030486;28;20227;-86
2023/08/30 07:06:10;;;;;;;8.97;8.17;;;19.30;90.10;18.50;95827.00;;;;5031916;28;20305;-86
2023/08/30 07:08:42;;;;;;;8.83;8.03;;;19.30;89.50;18.50;95823.00;;;;5035037;28;20261;-86
2023/08/30 07:11:10;;;;;;;9.17;8.40;;;19.30;89.30;18.50;95815.00;;;;5020672;28;20280;-87
2023/08/30 07:13:37;;;;;;;8.90;8.20;;;19.30;89.30;18.50;95818.00;;;;5027578;28;20338;-86
2023/08/30 07:16:05;;;;;;;8.70;8.00;;;19.30;89.00;18.40;95823.00;;;;5026639;28;20254;-87
2023/08/30 07:18:32;;;;;;;9.33;8.43;;;19.30;88.90;18.40;95821.00;;;;5034961;28;20205;-86
2023/08/30 07:20:59;;;;;;;8.33;7.63;;;19.30;88.80;18.40;95824.00;;;;5030676;28;20198;-86
2023/08/30 07:23:29;;;;;;;9.27;8.50;;;19.30;88.80;18.40;95823.00;;;;5026589;28;20226;-86
2023/08/30 07:25:56;;;;;;;8.80;8.10;;;19.20;89.00;18.40;95822.00;;;;5027578;28;20222;-86
2023/08/30 07:28:24;;;;;;;9.43;8.63;;;19.20;89.10;18.40;95817.00;;;;5026405;28;20197;-86
2023/08/30 07:30:51;;;;;;;7.70;7.20;;;19.20;89.20;18.40;95826.00;;;;5024583;28;20207;-85
2023/08/30 07:33:19;;;;;;;9.83;8.83;;;19.20;89.40;18.40;95829.00;;;;5038589;28;20205;-85
2023/08/30 07:35:46;;;;;;;8.97;8.27;;;19.20;89.60;18.50;95827.00;;;;5027701;28;20304;-86
2023/08/30 07:38:13;;;;;;;9.70;8.80;;;19.20;89.70;18.50;95826.00;;;;5022502;28;20198;-86
2023/08/30 07:40:42;;;;;;;10.13;9.23;;;19.20;89.70;18.50;95827.00;;;;5023133;28;20314;-86
2023/08/30 07:43:09;;;;;;;9.23;8.50;;;19.30;89.50;18.50;95825.00;;;;5028437;28;20250;-86
2023/08/30 07:45:36;;;;;;;8.57;7.80;;;19.30;89.40;18.50;95824.00;;;;5024308;28;20311;-86
2023/08/30 07:48:04;;;;;;;8.40;7.80;;;19.30;89.50;18.50;95826.00;;;;5019062;28;20198;-86
2023/08/30 07:50:31;;;;;;;8.77;7.87;;;19.30;89.70;18.60;95837.00;;;;5032866;28;20204;-87
2023/08/30 07:52:59;;;;;;;8.73;8.03;;;19.30;89.90;18.60;95828.00;;;;5031998;28;20193;-86
2023/08/30 07:55:26;;;;;;;10.03;9.13;;;19.30;90.00;18.60;95836.00;;;;5048656;28;20224;-86
2023/08/30 07:57:55;;;;;;;8.93;8.17;;;19.40;90.00;18.60;95837.00;;;;5019310;28;20368;-87
2023/08/30 08:00:22;;;;;;;8.43;7.63;;;19.40;89.60;18.70;95836.00;;;;5045626;28;20194;-86
2023/08/30 08:02:49;;;;;;;9.20;8.47;;;19.40;89.50;18.70;95836.00;;;;5034214;28;20238;-86
2023/08/30 08:05:17;;;;;;;8.93;8.23;;;19.40;89.40;18.70;95828.00;;;;5036932;28;20299;-86
2023/08/30 08:07:45;;;;;;;9.40;8.57;;;19.40;89.30;18.70;95838.00;;;;5034594;28;20198;-87
2023/08/30 08:10:12;;;;;;;8.93;8.13;;;19.40;89.50;18.70;95829.00;;;;5032322;28;20206;-86
2023/08/30 08:12:42;;;;;;;8.77;8.07;;;19.40;89.70;18.80;95831.00;;;;5036686;28;20609;-87
2023/08/30 08:15:11;;;;;;;9.13;8.43;;;19.50;89.80;18.80;95844.00;;;;5022654;28;20594;-87
2023/08/30 08:17:39;;;;;;;9.67;8.77;;;19.50;89.70;18.80;95836.00;;;;5039031;28;20686;-87
2023/08/30 08:20:08;;;;;;;9.07;8.37;;;19.50;89.50;18.80;95843.00;;;;5030798;28;20728;-87
2023/08/30 08:22:35;;;;;;;9.73;8.73;;;19.50;89.20;18.80;95846.00;;;;5027756;28;20208;-87
2023/08/30 08:25:03;;;;;;;9.20;8.40;;;19.60;89.20;18.80;95849.00;;;;5032069;28;20219;-86
2023/08/30 08:27:34;;;;;;;9.43;8.63;;;19.60;89.40;18.80;95844.00;;;;5040285;28;20189;-86
2023/08/30 08:30:03;;;;;;;8.47;7.83;;;19.60;89.40;18.80;95843.00;;;;5035195;28;20204;-87
2023/08/30 08:32:33;;;;;;;9.20;8.40;;;19.60;89.70;18.80;95852.00;;;;5023167;28;20201;-87
2023/08/30 08:35:00;;;;;;;9.00;8.27;;;19.60;90.10;18.90;95855.00;;;;5031302;28;20201;-87
2023/08/30 08:37:29;;;;;;;9.10;8.33;;;19.60;89.80;18.90;95854.00;;;;5027900;28;20201;-89
2023/08/30 08:39:56;;;;;;;9.13;8.33;;;19.60;89.90;18.90;95850.00;;;;5021623;28;20290;-87
2023/08/30 08:42:24;;;;;;;10.80;8.67;;;19.70;89.90;19.00;95851.00;;;;5026880;28;20592;-87
2023/08/30 08:44:54;;;;;;;10.17;9.17;;;19.70;89.80;19.00;95856.00;;;;5022243;28;20285;-86
2023/08/30 08:47:22;;;;;;;8.93;8.17;;;19.70;90.00;19.10;95856.00;;;;5034557;28;20687;-87
2023/08/30 08:49:52;;;;;;;10.07;9.23;;;19.70;90.10;19.10;95855.00;;;;5027229;28;20209;-86
2023/08/30 08:52:20;;;;;;;9.47;8.77;;;19.80;90.20;19.20;95861.00;;;;5031088;28;20210;-86
2023/08/30 08:54:47;;;;;;;9.17;8.43;;;19.80;90.30;19.20;95854.00;;;;5013784;28;20208;-87
2023/08/30 08:57:15;;;;;;;9.60;8.63;;;19.90;90.30;19.30;95856.00;;;;5020689;28;20205;-86
2023/08/30 08:59:43;;;;;;;8.90;8.20;;;19.90;90.10;19.30;95865.00;;;;5020768;28;20193;-86
2023/08/30 09:02:15;;;;;;;8.43;7.73;;;20.00;90.00;19.40;95862.00;;;;5027530;28;20212;-86
2023/08/30 09:04:43;;;;;;;9.00;8.20;;;20.10;89.90;19.40;95848.00;;;;5028619;28;20216;-87
2023/08/30 09:07:12;;;;;;;8.53;7.90;;;20.10;90.00;19.40;95845.00;;;;5019541;28;20198;-86
2023/08/30 09:09:40;;;;;;;7.33;6.73;;;20.10;90.20;19.50;95850.00;;;;5034475;28;20202;-86
2023/08/30 09:12:08;;;;;;;7.33;6.63;;;20.20;89.80;19.50;95836.00;;;;5035679;28;20587;-86
2023/08/30 09:14:35;;;;;;;7.03;6.53;;;20.20;89.90;19.50;95844.00;;;;5036385;28;20193;-86
2023/08/30 09:17:04;;;;;;;7.50;6.90;;;20.20;89.90;19.50;95841.00;;;;5033594;28;20213;-86
2023/08/30 09:19:32;;;;;;;7.00;6.50;;;20.30;90.00;19.60;95836.00;;;;5033680;28;20204;-86
2023/08/30 09:22:01;;;;;;;8.23;7.53;;;20.30;90.00;19.60;95838.00;;;;5011329;28;20205;-86
2023/08/30 09:24:39;;;;;;;7.40;6.90;;;20.30;89.70;19.60;95834.00;;;;5032934;28;20224;-86
2023/08/30 09:27:07;;;;;;;6.77;6.17;;;20.40;89.00;19.60;95836.00;;;;5027401;28;20237;-86
2023/08/30 09:29:34;;;;;;;6.50;6.10;;;20.40;89.50;19.70;95831.00;;;;5024462;28;20206;-86
2023/08/30 09:32:05;;;;;;;6.47;5.97;;;20.40;89.30;19.70;95826.00;;;;5025667;28;20209;-85
2023/08/30 09:34:32;;;;;;;6.33;5.93;;;20.40;89.10;19.70;95829.00;;;;5032458;28;20215;-86
2023/08/30 09:37:01;;;;;;;7.00;6.50;;;20.40;89.40;19.70;95824.00;;;;5034518;28;20213;-86
2023/08/30 09:39:30;;;;;;;6.67;6.17;;;20.50;89.20;19.70;95821.00;;;;5030276;28;20225;-86
2023/08/30 09:41:57;;;;;;;6.87;6.37;;;20.50;89.30;19.80;95822.00;;;;5035141;28;20658;-86
2023/08/30 09:44:25;;;;;;;6.93;6.43;;;20.50;89.50;19.80;95825.00;;;;5029173;28;20806;-86
2023/08/30 09:46:54;;;;;;;6.70;6.20;;;20.50;89.60;19.80;95826.00;;;;5012556;28;20270;-86
2023/08/30 09:49:23;;;;;;;7.03;6.50;;;20.60;89.60;19.90;95827.00;;;;5034131;28;20197;-86
2023/08/30 09:51:52;;;;;;;6.40;5.97;;;20.60;89.50;19.90;95828.00;;;;5034226;28;20472;-86
2023/08/30 09:54:21;;;;;;;7.27;6.67;;;20.60;89.40;19.90;95825.00;;;;5028446;28;20208;-86
2023/08/30 09:56:52;;;;;;;7.93;7.33;;;20.70;89.50;20.00;95824.00;;;;5017974;28;20703;-86
2023/08/30 09:59:20;;;;;;;6.77;6.27;;;20.70;89.10;20.00;95820.00;;;;5029424;28;20229;-85
2023/08/30 10:01:49;;;;;;;6.83;6.33;;;20.70;88.50;20.00;95812.00;;;;5024119;28;20204;-86
2023/08/30 10:04:19;;;;;;;7.30;6.63;;;20.80;87.80;20.10;95811.00;;;;5023884;28;20232;-85
2023/08/30 10:06:48;;;;;;;6.77;6.27;;;20.80;88.20;20.10;95805.00;;;;5029080;28;20223;-86
2023/08/30 10:09:16;;;;;;;7.13;6.63;;;20.80;88.00;20.20;95806.00;;;;5031580;28;20196;-85
2023/08/30 10:11:47;;;;;;;6.73;6.23;;;20.90;87.80;20.20;95807.00;;;;5013150;28;20208;-85
2023/08/30 10:14:16;;;;;;;6.60;6.10;;;20.90;87.10;20.30;95793.00;;;;5021998;28;20194;-85
2023/08/30 10:16:45;;;;;;;6.73;6.13;;;20.90;87.70;20.30;95797.00;;;;5023264;28;20212;-85
2023/08/30 10:19:17;;;;;;;6.60;6.10;;;21.00;87.30;20.40;95795.00;;;;5022126;28;20200;-85
2023/08/30 10:21:45;;;;;;;6.67;6.17;;;21.00;87.40;20.40;95795.00;;;;5020241;28;20292;-85
2023/08/30 10:24:16;;;;;;;6.33;5.93;;;21.00;87.90;20.40;95785.00;;;;5025760;28;20220;-85
2023/08/30 10:26:46;;;;;;;6.53;6.03;;;21.10;87.80;20.40;95785.00;;;;5022500;28;20212;-86
2023/08/30 10:29:18;;;;;;;5.97;5.50;;;21.10;88.20;20.40;95792.00;;;;5028398;28;20720;-85
2023/08/30 10:31:45;;;;;;;5.87;5.47;;;21.10;87.70;20.40;95787.00;;;;5016169;28;20565;-85
2023/08/30 10:34:16;;;;;;;5.80;5.47;;;21.10;87.70;20.40;95787.00;;;;5020591;28;20198;-84
2023/08/30 10:36:44;;;;;;;5.00;4.70;;;21.10;87.90;20.50;95787.00;;;;5030028;28;20217;-85
2023/08/30 10:39:16;;;;;;;5.30;5.00;;;21.20;87.50;20.50;95793.00;;;;5027277;28;20346;-85
2023/08/30 10:41:58;;;;;;;4.63;4.40;;;21.20;87.20;20.50;95784.00;;;;5024606;28;20198;-85
2023/08/30 10:44:27;;;;;;;5.17;4.77;;;21.20;87.10;20.50;95798.00;;;;5024893;28;20221;-85
2023/08/30 10:46:55;;;;;;;5.90;4.87;;;21.20;88.10;20.50;95792.00;;;;5023439;28;20228;-85
2023/08/30 10:49:23;;;;;;;5.03;4.73;;;21.20;88.20;20.50;95792.00;;;;5029346;28;20197;-85
2023/08/30 10:51:59;;;;;;;5.07;4.67;;;21.20;88.70;20.60;95789.00;;;;5024348;28;20205;-85
2023/08/30 10:54:26;;;;;;;5.80;5.30;;;21.30;87.40;20.60;95777.00;;;;5026605;28;20202;-85
2023/08/30 10:56:59;;;;;;;5.73;5.33;;;21.30;88.10;20.60;95788.00;;;;5028106;28;20227;-85
2023/08/30 10:59:29;;;;;;;5.50;5.00;;;21.30;86.60;20.60;95787.00;;;;5037373;28;20232;-85